Aérodrome :
LOGIN :

S'inscrire | Disclaimer

   EN    FR    IT 

 










Légende :    VFR   VFR Marginal   IFR   IFR Intensif   IFR Très Intensif
Visi : 
Plafond : 
>= 8 km
>= 3000ft
5 à 8 km
1000 à 3000 ft
1500m à 5 km
500 à 1000 ft
800 à 1500m
200 à 500 ft
< 800m
< 200 ft
Symboles :   Orages  Brouillard  Fortes neiges  Fortes précipitations  Vent > 20 kt
SIGMETs :   Divers  Orages  Givrage  Turbulence  Onde Orograph.  Cendres Volcan.







- Altitude de l'aérodrome : 1860 ft
- Code IATA : GRX


LEGR - Granada

DERNIER METAR :
  • 181530Z 28007KT 230V330 9999 FEW040 FEW050TCU 31/14 Q1016

METARs EXPIRÉS :
  • 181500Z VRB02KT 9999 FEW040 31/12 Q1016
  • 181430Z 31006KT 250V360 9999 FEW040 31/13 Q1017
  • 181400Z 27006KT 240V330 9999 FEW040 30/14 Q1017
  • 181330Z 25004KT 190V320 9999 FEW040TCU 30/13 Q1017
  • 181300Z VRB03KT 9999 FEW040TCU 30/14 Q1017
  • 181230Z VRB01KT 9999 FEW040TCU 30/15 Q1018

TAF TAF LEGR
Valide du 18 à 15h jusqu'au 19 à 15h UTC


181400Z 1815/1915 VRB02KT 9999 SCT040 TX31/1915Z TN16/1906Z
TEMPO 1815/1820 SCT040CB
PROB30
TEMPO 1815/1820 VRB15G25KT 3000 TSRA SCT020 SCT035CB
Pas de NOTAMs connus pour ce terrain.
2 SIGMETs publiés pour la FIR Madrid (LECM) :
 
Orages noyés dans la masse
LECM SIGMET 2 VALID 181430/181630 LEVA
LECM MADRID FIR/UIR EMBD TS FCST WI N40 W00530 - N4030 W00110 - N3710 W002 - N3640 W00530 - N40 W00530 TOP FL380 STNR NC=
Orages noyés dans la masse
LECM SIGMET 1 VALID 181430/181630 LEVA
LECM MADRID FIR/UIR EMBD TS FCST WI N4010 W00610 - N43 W00210 - N4250 W00040 - N4140 W00150 - N41 W001 - N4010 W00610 TOP FL380 STNR NC=



MET'MAP, la Météo Aéronautique d'un coup d'oeil ! - Copyright ORBIFLY Décembre 2007 - Disclaimer

ORBIFLY MET'MAP TEAM :

Programmation & Développement : Alexandra Zaïnal
Conception & Développement : Baudouin d'Aumeries
Co-Programmation & Développement : Marc-Olivier Méhu
Soutien technique & logistique : Manuel Goepfert

Contact : metmap@orbifly.com




SOURCES & CREDITS :

   NOAA